Wolgastern — CQLH — position and weather

sailwx.info

Track history (hours):
 
Tides and Currents Weather Stations Pressure Air Temp Water Temp Dewpoint Dewpoint Depression Visibility Wind Speed Wind Dir Waves Ship Positions

Wolgastern

Last reported at 2015-Mar-24 21:33 UTC. Time now 2015-Mar-28 22:15 UTC.
Position N 54°07' E 004°38'.

Length 162 m; draft 6.6 m.

Type: Ship. MMSI: 255804950.

Date/timePositionNaut miles runAvg speedWind from/ knotsBaromVisibWave heightAir tempDewpointWater temp
2015-Mar-24 21:33N 54°07' E 004°38'1211.6
2015-Mar-24 20:32N 53°55' E 004°35'11510.3
2015-Mar-24 09:21N 52°04' E 003°47'911.6
2015-Mar-24 08:33N 52°00' E 004°01'9 9.3
2015-Mar-24 07:33N 51°55' E 004°13'0 0.0
2015-Mar-24 06:33N 51°55' E 004°13'0 0.0
2015-Mar-24 05:33N 51°55' E 004°13'0 0.0
2015-Mar-24 04:33N 51°55' E 004°13'0 0.0
2015-Mar-24 03:33N 51°55' E 004°13'0 0.0
2015-Mar-24 02:33N 51°55' E 004°13'0 0.0
2015-Mar-24 01:33N 51°55' E 004°13'0 0.0
2015-Mar-24 00:33N 51°55' E 004°13'0 0.0
2015-Mar-23 23:33N 51°55' E 004°13'0 0.0
2015-Mar-23 22:33N 51°55' E 004°13'0 0.0
2015-Mar-23 21:33N 51°55' E 004°13'0 0.0
2015-Mar-23 20:33N 51°55' E 004°13'0 0.0
2015-Mar-23 19:33N 51°55' E 004°13'1 1.4
2015-Mar-23 18:33N 51°56' E 004°12'0 0.0
2015-Mar-23 17:33N 51°56' E 004°12'0 0.0
2015-Mar-23 16:33N 51°56' E 004°12'0 0.0
2015-Mar-23 15:33N 51°56' E 004°12'0 0.0
2015-Mar-23 14:33N 51°56' E 004°12'0 0.0
2015-Mar-23 13:33N 51°56' E 004°12'0 0.0
2015-Mar-23 12:33N 51°56' E 004°12'0 0.0
2015-Mar-23 11:33N 51°56' E 004°12'0 0.0
2015-Mar-23 10:33N 51°56' E 004°12'0 0.0
2015-Mar-23 09:33N 51°56' E 004°12'0 0.0
2015-Mar-23 08:33N 51°56' E 004°12'0 0.0
2015-Mar-23 07:33N 51°56' E 004°12'0 0.0
2015-Mar-23 06:33N 51°56' E 004°12'0 0.0
2015-Mar-23 05:33N 51°56' E 004°12'0 0.0
2015-Mar-23 04:32N 51°56' E 004°12'0 0.0
2015-Mar-23 03:33N 51°56' E 004°12'0 0.0
2015-Mar-23 02:33N 51°56' E 004°12'0 0.0
2015-Mar-23 01:33N 51°56' E 004°12'0 0.0
2015-Mar-23 00:33N 51°56' E 004°12'0 0.0
2015-Mar-22 23:33N 51°56' E 004°12'0 0.0
2015-Mar-22 22:33N 51°56' E 004°12'0 0.0
2015-Mar-22 21:33N 51°56' E 004°12'0 0.0
2015-Mar-22 20:33N 51°56' E 004°12'0 0.0
2015-Mar-22 19:33N 51°56' E 004°12'0 0.0
2015-Mar-22 18:32N 51°56' E 004°12'0 0.0
2015-Mar-22 17:33N 51°56' E 004°12'0 0.0
2015-Mar-22 16:33N 51°56' E 004°12'0 0.0
2015-Mar-22 15:33N 51°56' E 004°12'0 0.0
2015-Mar-22 14:33N 51°56' E 004°12'0 0.0
2015-Mar-22 13:33N 51°56' E 004°12'0 0.0
2015-Mar-22 12:33N 51°56' E 004°12'0 0.0
2015-Mar-22 11:33N 51°56' E 004°12'0 0.0
2015-Mar-22 10:33N 51°56' E 004°12'0 0.0
2015-Mar-22 09:33N 51°56' E 004°12'0 0.0
2015-Mar-22 08:33N 51°56' E 004°12'0 0.0
2015-Mar-22 07:33N 51°56' E 004°12'0 0.0
2015-Mar-22 06:33N 51°56' E 004°12'0 0.0
2015-Mar-22 05:33N 51°56' E 004°12'0 0.0
2015-Mar-22 04:33N 51°56' E 004°12'0 0.0
2015-Mar-22 03:33N 51°56' E 004°12'0 0.0
2015-Mar-22 02:33N 51°56' E 004°12'0 0.0
2015-Mar-22 01:33N 51°56' E 004°12'0 0.0
2015-Mar-22 00:33N 51°56' E 004°12'0 0.0
2015-Mar-21 23:33N 51°56' E 004°12'0 0.0
2015-Mar-21 22:33N 51°56' E 004°12'0 0.0
2015-Mar-21 21:33N 51°56' E 004°12'0 0.0
2015-Mar-21 20:33N 51°56' E 004°12'0 0.0
2015-Mar-21 19:33N 51°56' E 004°12'0 0.0
2015-Mar-21 18:33N 51°56' E 004°12'0 0.0
2015-Mar-21 17:33N 51°56' E 004°12'0 0.0
2015-Mar-21 16:33N 51°56' E 004°12'2 2.0
2015-Mar-21 15:33N 51°57' E 004°09'5 4.6
2015-Mar-21 14:33N 51°59' E 004°02'10 9.9
2015-Mar-21 13:33N 52°01' E 003°47'10 3.3
2015-Mar-21 10:27N 52°09' E 003°36'0 0.0
2015-Mar-21 08:13N 52°09' E 003°36'0 0.0
2015-Mar-21 07:31N 52°09' E 003°36'0 0.1
2015-Mar-21 05:30N 52°09' E 003°36'0 0.0
2015-Mar-21 04:31N 52°09' E 003°36'0 0.0
2015-Mar-21 03:33N 52°09' E 003°36'0 0.0
2015-Mar-21 02:32N 52°09' E 003°36'0 0.0
2015-Mar-21 01:30N 52°09' E 003°36'0 0.0
2015-Mar-21 00:08N 52°09' E 003°36'0 0.1
2015-Mar-20 22:32N 52°09' E 003°36'0 0.0
2015-Mar-20 20:31N 52°09' E 003°36'0 0.0
2015-Mar-20 19:05N 52°09' E 003°36'0 0.0
2015-Mar-20 17:32N 52°09' E 003°36'0 0.0
2015-Mar-20 16:33N 52°09' E 003°36'0 0.0
2015-Mar-20 15:32N 52°09' E 003°36'0 0.0
2015-Mar-20 14:32N 52°09' E 003°36'0 0.0
2015-Mar-20 13:09N 52°09' E 003°36'0 0.1
2015-Mar-20 11:16N 52°09' E 003°36'0 0.0
2015-Mar-20 09:33N 52°09' E 003°36'0 0.0
2015-Mar-20 08:31N 52°09' E 003°36'0 0.0
2015-Mar-20 07:33N 52°09' E 003°36'0 0.0
2015-Mar-20 06:33N 52°09' E 003°36'0 0.0
2015-Mar-20 05:32N 52°09' E 003°36'0 0.1
2015-Mar-20 04:26N 52°09' E 003°36'0 0.0
2015-Mar-20 03:32N 52°09' E 003°36'0 0.0
2015-Mar-20 02:31N 52°09' E 003°36'0 0.0
2015-Mar-20 01:33N 52°09' E 003°36'0 0.1
2015-Mar-20 00:30N 52°09' E 003°36'0 0.0
2015-Mar-19 22:33N 52°09' E 003°36'0 0.0
2015-Mar-19 21:11N 52°09' E 003°36'0 0.0
2015-Mar-19 19:33N 52°09' E 003°36'0 0.0
2015-Mar-19 18:25N 52°09' E 003°36'0 0.0
2015-Mar-19 16:24N 52°09' E 003°36'0 0.2
2015-Mar-19 15:33N 52°09' E 003°36'0 0.0
2015-Mar-19 14:30N 52°09' E 003°36'0 0.0
2015-Mar-19 13:25N 52°09' E 003°36'0 0.0
2015-Mar-19 12:21N 52°09' E 003°36'0 0.0
2015-Mar-19 03:16N 52°09' E 003°36'0 0.0
2015-Mar-19 02:28N 52°09' E 003°36'0 0.0
2015-Mar-19 01:17N 52°09' E 003°36'0 0.0
2015-Mar-19 00:32N 52°09' E 003°36'0 0.1
2015-Mar-18 21:15N 52°09' E 003°36'0 0.0
2015-Mar-18 17:24N 52°09' E 003°36'0 0.0
2015-Mar-18 16:28N 52°09' E 003°36'0 0.0
2015-Mar-18 15:34N 52°09' E 003°36'0 0.1
2015-Mar-18 14:32N 52°09' E 003°36'0 0.1
2015-Mar-18 13:34N 52°09' E 003°36'0 0.0
2015-Mar-18 12:22N 52°09' E 003°36'0 0.1
2015-Mar-18 11:05N 52°09' E 003°36'0 0.0
2015-Mar-18 09:10N 52°09' E 003°36'0 0.0
2015-Mar-18 08:16N 52°09' E 003°36'0 0.0
2015-Mar-18 07:30N 52°09' E 003°36'0 0.0
2015-Mar-18 06:13N 52°09' E 003°36'0 0.0
2015-Mar-18 05:32N 52°09' E 003°36'0 0.0
2015-Mar-18 04:29N 52°09' E 003°36'0 0.0
2015-Mar-18 03:31N 52°09' E 003°36'0 0.1
2015-Mar-18 02:31N 52°09' E 003°36'0 0.0
2015-Mar-18 01:21N 52°09' E 003°36'0 0.0
2015-Mar-18 00:32N 52°09' E 003°36'0 0.0
2015-Mar-17 23:14N 52°09' E 003°36'0 0.1
2015-Mar-17 22:30N 52°09' E 003°36'0 0.0
2015-Mar-17 21:28N 52°09' E 003°36'0 0.0
2015-Mar-17 20:28N 52°09' E 003°36'0 0.0
2015-Mar-17 19:15N 52°09' E 003°36'0 0.0
2015-Mar-17 18:30N 52°09' E 003°36'0 0.0
2015-Mar-17 17:25N 52°09' E 003°36'0 0.0
2015-Mar-17 16:33N 52°09' E 003°36'0 0.0
2015-Mar-17 15:33N 52°09' E 003°36'0 0.1
2015-Mar-17 14:33N 52°09' E 003°36'0 0.0
2015-Mar-17 13:30N 52°09' E 003°36'0 0.0
2015-Mar-17 12:32N 52°09' E 003°36'0 0.0
2015-Mar-17 11:30N 52°09' E 003°36'0 0.0
2015-Mar-17 10:25N 52°09' E 003°36'0 0.0
2015-Mar-17 09:23N 52°09' E 003°36'0 0.0
2015-Mar-17 08:28N 52°09' E 003°36'0 0.0
2015-Mar-17 07:14N 52°09' E 003°36'0 0.0
2015-Mar-17 06:24N 52°09' E 003°36'0 0.0
2015-Mar-17 05:29N 52°09' E 003°36'0 0.0
2015-Mar-17 03:15N 52°09' E 003°36'0 0.1
2015-Mar-17 02:29N 52°09' E 003°36'0 0.0
2015-Mar-17 01:31N 52°09' E 003°36'0 0.0
2015-Mar-17 00:15N 52°09' E 003°36'0 0.0
2015-Mar-16 23:32N 52°09' E 003°36'0 0.0
2015-Mar-16 22:29N 52°09' E 003°36'0 0.0
2015-Mar-16 21:19N 52°09' E 003°36'0 0.0
2015-Mar-16 20:33N 52°09' E 003°36'0 0.0
2015-Mar-16 19:33N 52°09' E 003°36'0 0.0
2015-Mar-16 18:06N 52°09' E 003°36'0 0.0
2015-Mar-16 17:29N 52°09' E 003°36'0 0.0
2015-Mar-16 16:32N 52°09' E 003°36'0 0.0
2015-Mar-16 14:21N 52°09' E 003°36'0 0.1
2015-Mar-16 13:20N 52°09' E 003°36'0 0.0
2015-Mar-16 12:30N 52°09' E 003°36'0 0.0
2015-Mar-16 11:25N 52°09' E 003°36'0 0.0
2015-Mar-16 10:13N 52°09' E 003°36'0 0.0
2015-Mar-16 09:32N 52°09' E 003°36'0 0.1
2015-Mar-16 08:23N 52°09' E 003°36'0 0.0
2015-Mar-16 07:33N 52°09' E 003°36'0 0.0
2015-Mar-16 06:30N 52°09' E 003°36'0 0.0
2015-Mar-16 05:33N 52°09' E 003°36'0 0.0
2015-Mar-16 04:33N 52°09' E 003°36'  
Track history (hours):
 
Tides and Currents Weather Stations Pressure Air Temp Water Temp Dewpoint Dewpoint Depression Visibility Wind Speed Wind Dir Waves Ship Positions

Wolgastern

Last reported at 2015-Mar-24 21:33 UTC. Time now 2015-Mar-28 22:15 UTC.
Position N 54°07' E 004°38'.

Length 162 m; draft 6.6 m.

Type: Ship. MMSI: 255804950.

Date/timePositionNaut miles runAvg speedWind from/ knotsBaromVisibWave heightAir tempDewpointWater temp
2015-Mar-24 21:33N 54°07' E 004°38'1211.6
2015-Mar-24 20:32N 53°55' E 004°35'11510.3
2015-Mar-24 09:21N 52°04' E 003°47'911.6
2015-Mar-24 08:33N 52°00' E 004°01'9 9.3
2015-Mar-24 07:33N 51°55' E 004°13'0 0.0
2015-Mar-24 06:33N 51°55' E 004°13'0 0.0
2015-Mar-24 05:33N 51°55' E 004°13'0 0.0
2015-Mar-24 04:33N 51°55' E 004°13'0 0.0
2015-Mar-24 03:33N 51°55' E 004°13'0 0.0
2015-Mar-24 02:33N 51°55' E 004°13'0 0.0
2015-Mar-24 01:33N 51°55' E 004°13'0 0.0
2015-Mar-24 00:33N 51°55' E 004°13'0 0.0
2015-Mar-23 23:33N 51°55' E 004°13'0 0.0
2015-Mar-23 22:33N 51°55' E 004°13'0 0.0
2015-Mar-23 21:33N 51°55' E 004°13'0 0.0
2015-Mar-23 20:33N 51°55' E 004°13'0 0.0
2015-Mar-23 19:33N 51°55' E 004°13'1 1.4
2015-Mar-23 18:33N 51°56' E 004°12'0 0.0
2015-Mar-23 17:33N 51°56' E 004°12'0 0.0
2015-Mar-23 16:33N 51°56' E 004°12'0 0.0
2015-Mar-23 15:33N 51°56' E 004°12'0 0.0
2015-Mar-23 14:33N 51°56' E 004°12'0 0.0
2015-Mar-23 13:33N 51°56' E 004°12'0 0.0
2015-Mar-23 12:33N 51°56' E 004°12'0 0.0
2015-Mar-23 11:33N 51°56' E 004°12'0 0.0
2015-Mar-23 10:33N 51°56' E 004°12'0 0.0
2015-Mar-23 09:33N 51°56' E 004°12'0 0.0
2015-Mar-23 08:33N 51°56' E 004°12'0 0.0
2015-Mar-23 07:33N 51°56' E 004°12'0 0.0
2015-Mar-23 06:33N 51°56' E 004°12'0 0.0
2015-Mar-23 05:33N 51°56' E 004°12'0 0.0
2015-Mar-23 04:32N 51°56' E 004°12'0 0.0
2015-Mar-23 03:33N 51°56' E 004°12'0 0.0
2015-Mar-23 02:33N 51°56' E 004°12'0 0.0
2015-Mar-23 01:33N 51°56' E 004°12'0 0.0
2015-Mar-23 00:33N 51°56' E 004°12'0 0.0
2015-Mar-22 23:33N 51°56' E 004°12'0 0.0
2015-Mar-22 22:33N 51°56' E 004°12'0 0.0
2015-Mar-22 21:33N 51°56' E 004°12'0 0.0
2015-Mar-22 20:33N 51°56' E 004°12'0 0.0
2015-Mar-22 19:33N 51°56' E 004°12'0 0.0
2015-Mar-22 18:32N 51°56' E 004°12'0 0.0
2015-Mar-22 17:33N 51°56' E 004°12'0 0.0
2015-Mar-22 16:33N 51°56' E 004°12'0 0.0
2015-Mar-22 15:33N 51°56' E 004°12'0 0.0
2015-Mar-22 14:33N 51°56' E 004°12'0 0.0
2015-Mar-22 13:33N 51°56' E 004°12'0 0.0
2015-Mar-22 12:33N 51°56' E 004°12'0 0.0
2015-Mar-22 11:33N 51°56' E 004°12'0 0.0
2015-Mar-22 10:33N 51°56' E 004°12'0 0.0
2015-Mar-22 09:33N 51°56' E 004°12'0 0.0
2015-Mar-22 08:33N 51°56' E 004°12'0 0.0
2015-Mar-22 07:33N 51°56' E 004°12'0 0.0
2015-Mar-22 06:33N 51°56' E 004°12'0 0.0
2015-Mar-22 05:33N 51°56' E 004°12'0 0.0
2015-Mar-22 04:33N 51°56' E 004°12'0 0.0
2015-Mar-22 03:33N 51°56' E 004°12'0 0.0
2015-Mar-22 02:33N 51°56' E 004°12'0 0.0
2015-Mar-22 01:33N 51°56' E 004°12'0 0.0
2015-Mar-22 00:33N 51°56' E 004°12'0 0.0
2015-Mar-21 23:33N 51°56' E 004°12'0 0.0
2015-Mar-21 22:33N 51°56' E 004°12'0 0.0
2015-Mar-21 21:33N 51°56' E 004°12'0 0.0
2015-Mar-21 20:33N 51°56' E 004°12'0 0.0
2015-Mar-21 19:33N 51°56' E 004°12'0 0.0
2015-Mar-21 18:33N 51°56' E 004°12'0 0.0
2015-Mar-21 17:33N 51°56' E 004°12'0 0.0
2015-Mar-21 16:33N 51°56' E 004°12'2 2.0
2015-Mar-21 15:33N 51°57' E 004°09'5 4.6
2015-Mar-21 14:33N 51°59' E 004°02'10 9.9
2015-Mar-21 13:33N 52°01' E 003°47'10 3.3
2015-Mar-21 10:27N 52°09' E 003°36'0 0.0
2015-Mar-21 08:13N 52°09' E 003°36'0 0.0
2015-Mar-21 07:31N 52°09' E 003°36'0 0.1
2015-Mar-21 05:30N 52°09' E 003°36'0 0.0
2015-Mar-21 04:31N 52°09' E 003°36'0 0.0
2015-Mar-21 03:33N 52°09' E 003°36'0 0.0
2015-Mar-21 02:32N 52°09' E 003°36'0 0.0
2015-Mar-21 01:30N 52°09' E 003°36'0 0.0
2015-Mar-21 00:08N 52°09' E 003°36'0 0.1
2015-Mar-20 22:32N 52°09' E 003°36'0 0.0
2015-Mar-20 20:31N 52°09' E 003°36'0 0.0
2015-Mar-20 19:05N 52°09' E 003°36'0 0.0
2015-Mar-20 17:32N 52°09' E 003°36'0 0.0
2015-Mar-20 16:33N 52°09' E 003°36'0 0.0
2015-Mar-20 15:32N 52°09' E 003°36'0 0.0
2015-Mar-20 14:32N 52°09' E 003°36'0 0.0
2015-Mar-20 13:09N 52°09' E 003°36'0 0.1
2015-Mar-20 11:16N 52°09' E 003°36'0 0.0
2015-Mar-20 09:33N 52°09' E 003°36'0 0.0
2015-Mar-20 08:31N 52°09' E 003°36'0 0.0
2015-Mar-20 07:33N 52°09' E 003°36'0 0.0
2015-Mar-20 06:33N 52°09' E 003°36'0 0.0
2015-Mar-20 05:32N 52°09' E 003°36'0 0.1
2015-Mar-20 04:26N 52°09' E 003°36'0 0.0
2015-Mar-20 03:32N 52°09' E 003°36'0 0.0
2015-Mar-20 02:31N 52°09' E 003°36'0 0.0
2015-Mar-20 01:33N 52°09' E 003°36'0 0.1
2015-Mar-20 00:30N 52°09' E 003°36'0 0.0
2015-Mar-19 22:33N 52°09' E 003°36'0 0.0
2015-Mar-19 21:11N 52°09' E 003°36'0 0.0
2015-Mar-19 19:33N 52°09' E 003°36'0 0.0
2015-Mar-19 18:25N 52°09' E 003°36'0 0.0
2015-Mar-19 16:24N 52°09' E 003°36'0 0.2
2015-Mar-19 15:33N 52°09' E 003°36'0 0.0
2015-Mar-19 14:30N 52°09' E 003°36'0 0.0
2015-Mar-19 13:25N 52°09' E 003°36'0 0.0
2015-Mar-19 12:21N 52°09' E 003°36'0 0.0
2015-Mar-19 03:16N 52°09' E 003°36'0 0.0
2015-Mar-19 02:28N 52°09' E 003°36'0 0.0
2015-Mar-19 01:17N 52°09' E 003°36'0 0.0
2015-Mar-19 00:32N 52°09' E 003°36'0 0.1
2015-Mar-18 21:15N 52°09' E 003°36'0 0.0
2015-Mar-18 17:24N 52°09' E 003°36'0 0.0
2015-Mar-18 16:28N 52°09' E 003°36'0 0.0
2015-Mar-18 15:34N 52°09' E 003°36'0 0.1
2015-Mar-18 14:32N 52°09' E 003°36'0 0.1
2015-Mar-18 13:34N 52°09' E 003°36'0 0.0
2015-Mar-18 12:22N 52°09' E 003°36'0 0.1
2015-Mar-18 11:05N 52°09' E 003°36'0 0.0
2015-Mar-18 09:10N 52°09' E 003°36'0 0.0
2015-Mar-18 08:16N 52°09' E 003°36'0 0.0
2015-Mar-18 07:30N 52°09' E 003°36'0 0.0
2015-Mar-18 06:13N 52°09' E 003°36'0 0.0
2015-Mar-18 05:32N 52°09' E 003°36'0 0.0
2015-Mar-18 04:29N 52°09' E 003°36'0 0.0
2015-Mar-18 03:31N 52°09' E 003°36'0 0.1
2015-Mar-18 02:31N 52°09' E 003°36'0 0.0
2015-Mar-18 01:21N 52°09' E 003°36'0 0.0
2015-Mar-18 00:32N 52°09' E 003°36'0 0.0
2015-Mar-17 23:14N 52°09' E 003°36'0 0.1
2015-Mar-17 22:30N 52°09' E 003°36'0 0.0
2015-Mar-17 21:28N 52°09' E 003°36'0 0.0
2015-Mar-17 20:28N 52°09' E 003°36'0 0.0
2015-Mar-17 19:15N 52°09' E 003°36'0 0.0
2015-Mar-17 18:30N 52°09' E 003°36'0 0.0
2015-Mar-17 17:25N 52°09' E 003°36'0 0.0
2015-Mar-17 16:33N 52°09' E 003°36'0 0.0
2015-Mar-17 15:33N 52°09' E 003°36'0 0.1
2015-Mar-17 14:33N 52°09' E 003°36'0 0.0
2015-Mar-17 13:30N 52°09' E 003°36'0 0.0
2015-Mar-17 12:32N 52°09' E 003°36'0 0.0
2015-Mar-17 11:30N 52°09' E 003°36'0 0.0
2015-Mar-17 10:25N 52°09' E 003°36'0 0.0
2015-Mar-17 09:23N 52°09' E 003°36'0 0.0
2015-Mar-17 08:28N 52°09' E 003°36'0 0.0
2015-Mar-17 07:14N 52°09' E 003°36'0 0.0
2015-Mar-17 06:24N 52°09' E 003°36'0 0.0
2015-Mar-17 05:29N 52°09' E 003°36'0 0.0
2015-Mar-17 03:15N 52°09' E 003°36'0 0.1
2015-Mar-17 02:29N 52°09' E 003°36'0 0.0
2015-Mar-17 01:31N 52°09' E 003°36'0 0.0
2015-Mar-17 00:15N 52°09' E 003°36'0 0.0
2015-Mar-16 23:32N 52°09' E 003°36'0 0.0
2015-Mar-16 22:29N 52°09' E 003°36'0 0.0
2015-Mar-16 21:19N 52°09' E 003°36'0 0.0
2015-Mar-16 20:33N 52°09' E 003°36'0 0.0
2015-Mar-16 19:33N 52°09' E 003°36'0 0.0
2015-Mar-16 18:06N 52°09' E 003°36'0 0.0
2015-Mar-16 17:29N 52°09' E 003°36'0 0.0
2015-Mar-16 16:32N 52°09' E 003°36'0 0.0
2015-Mar-16 14:21N 52°09' E 003°36'0 0.1
2015-Mar-16 13:20N 52°09' E 003°36'0 0.0
2015-Mar-16 12:30N 52°09' E 003°36'0 0.0
2015-Mar-16 11:25N 52°09' E 003°36'0 0.0
2015-Mar-16 10:13N 52°09' E 003°36'0 0.0
2015-Mar-16 09:32N 52°09' E 003°36'0 0.1
2015-Mar-16 08:23N 52°09' E 003°36'0 0.0
2015-Mar-16 07:33N 52°09' E 003°36'0 0.0
2015-Mar-16 06:30N 52°09' E 003°36'0 0.0
2015-Mar-16 05:33N 52°09' E 003°36'0 0.0
2015-Mar-16 04:33N 52°09' E 003°36'  

Dump ship's entire track history